.
WxDataArchive / Data Records for 2014-06-15
2014-06-14 June 2014 2014-06-16

Data Records for Sunday, 15 June 2014

Time	Temp	Chill	HIndex	Humid	Dewpt	 Wind 	HiWind	WindDir	Rain 	Barom
-----	----	-----	------	-----	-----	------	------	-------	-----	-----
00:00	59.2	59.2	59.2	65	47.4	0	0	---	0.00	30.044 
00:05	59.2	59.2	59.2	63	46.6	0	0	---	0.00	30.044 
00:10	59.2	59.2	59.2	63	46.6	0	0	---	0.00	30.044 
00:15	59.2	59.2	59.2	62	46.2	0	0	---	0.00	30.050 
00:20	59.2	59.2	59.2	63	46.6	0	0	---	0.00	30.050 
00:25	59.0	59.0	59.0	64	46.8	0	0	---	0.00	30.050 
00:30	58.9	58.9	58.9	64	46.7	0	0	---	0.00	30.053 
00:35	58.7	58.7	58.7	66	47.4	0	0	---	0.00	30.053 
00:40	58.6	58.6	58.6	69	48.5	0	0	---	0.00	30.053 
00:45	58.3	58.3	58.3	71	48.9	0	0	---	0.00	30.052 
00:50	58.1	58.1	58.1	72	49.1	0	0	---	0.00	30.052 
00:55	58.0	58.0	58.0	72	49.0	0	0	---	0.00	30.052 
01:00	57.8	57.8	57.8	72	48.8	0	0	---	0.00	30.053 
01:05	57.6	57.6	57.6	71	48.3	0	0	---	0.00	30.053 
01:10	57.3	57.3	57.3	71	48.0	0	0	---	0.00	30.053 
01:15	57.2	57.2	57.2	71	47.9	0	0	---	0.00	30.051 
01:20	57.0	57.0	57.0	72	48.1	0	0	---	0.00	30.051 
01:25	57.0	57.0	57.0	72	48.1	0	0	---	0.00	30.051 
01:30	56.9	56.9	56.9	72	48.0	0	0	---	0.00	30.048 
01:35	56.9	56.9	56.9	73	48.3	0	0	---	0.00	30.048 
01:40	56.7	56.7	56.7	73	48.1	0	0	---	0.00	30.048 
01:45	56.6	56.6	56.6	72	47.7	0	0	---	0.00	30.049 
01:50	56.6	56.6	56.6	73	48.0	0	0	---	0.00	30.049 
01:55	56.5	56.5	56.5	73	47.9	0	0	---	0.00	30.049 
02:00	56.3	56.3	56.3	72	47.4	0	0	---	0.00	30.047 
02:05	56.3	56.3	56.3	73	47.8	0	0	---	0.00	30.047 
02:10	56.3	56.3	56.3	73	47.8	0	0	---	0.00	30.047 
02:15	56.2	56.2	56.2	73	47.7	0	0	---	0.00	30.045 
02:20	56.0	56.0	56.0	73	47.5	0	0	---	0.00	30.045 
02:25	56.0	56.0	56.0	73	47.5	0	0	---	0.00	30.045 
02:30	55.9	55.9	55.9	73	47.4	0	0	---	0.00	30.044 
02:35	55.9	55.9	55.9	74	47.7	0	0	---	0.00	30.044 
02:40	55.7	55.7	55.7	74	47.5	0	0	---	0.00	30.044 
02:45	55.7	55.7	55.7	74	47.5	0	0	---	0.00	30.043 
02:50	55.6	55.6	55.6	75	47.8	0	0	---	0.00	30.043 
02:55	55.4	55.4	55.4	75	47.6	0	0	---	0.00	30.043 
03:00	55.3	55.3	55.3	76	47.9	0	0	---	0.00	30.044 
03:05	55.1	55.1	55.1	76	47.7	0	0	---	0.00	30.044 
03:10	55.0	55.0	55.0	76	47.6	0	0	---	0.00	30.044 
03:15	54.8	54.8	54.8	77	47.7	0	0	---	0.00	30.047 
03:20	54.7	54.7	54.7	77	47.6	0	0	---	0.00	30.047 
03:25	54.5	54.5	54.5	77	47.4	0	0	---	0.00	30.047 
03:30	54.4	54.4	54.4	78	47.7	0	0	---	0.00	30.044 
03:35	54.1	54.1	54.1	79	47.7	0	0	---	0.00	30.044 
03:40	54.1	54.1	54.1	80	48.1	0	0	---	0.00	30.044 
03:45	53.9	53.9	53.9	81	48.2	0	0	---	0.00	30.050 
03:50	53.6	53.6	53.6	81	47.9	0	0	---	0.00	30.050 
03:55	53.5	53.5	53.5	82	48.1	0	0	---	0.00	30.050 
04:00	53.3	53.3	53.3	83	48.3	0	0	---	0.00	30.053 
04:05	53.2	53.2	53.2	83	48.2	0	0	---	0.00	30.053 
04:10	53.1	53.1	53.1	84	48.4	0	0	---	0.00	30.053 
04:15	52.8	52.8	52.8	84	48.1	0	0	---	0.00	30.051 
04:20	52.6	52.6	52.6	85	48.2	0	0	---	0.00	30.051 
04:25	52.5	52.5	52.5	86	48.4	0	0	---	0.00	30.051 
04:30	52.5	52.5	52.5	86	48.4	0	0	---	0.00	30.043 
04:35	52.3	52.3	52.3	86	48.2	0	0	---	0.00	30.043 
04:40	52.3	52.3	52.3	86	48.2	0	0	---	0.00	30.043 
04:45	52.2	52.2	52.2	86	48.1	0	0	---	0.00	30.043 
04:50	52.0	52.0	52.0	86	47.9	0	0	---	0.00	30.043 
04:55	51.7	51.7	51.7	86	47.6	0	0	---	0.00	30.043 
05:00	51.6	51.6	51.6	87	47.9	0	0	---	0.00	30.041 
05:05	51.6	51.6	51.6	87	47.9	0	0	---	0.00	30.041 
05:10	51.4	51.4	51.4	87	47.7	0	0	---	0.00	30.041 
05:15	51.4	51.4	51.4	87	47.7	0	0	---	0.00	30.043 
05:20	51.3	51.3	51.3	88	47.9	0	0	---	0.00	30.043 
05:25	51.1	51.1	51.1	87	47.4	0	0	---	0.00	30.043 
05:30	51.1	51.1	51.1	88	47.7	0	0	---	0.00	30.032 
05:35	51.0	51.0	51.0	88	47.6	0	0	---	0.00	30.032 
05:40	51.0	51.0	51.0	88	47.6	0	0	---	0.00	30.032 
05:45	51.0	51.0	51.0	88	47.6	0	0	---	0.00	30.039 
05:50	50.8	50.8	50.8	88	47.4	0	0	---	0.00	30.039 
05:55	50.8	50.8	50.8	88	47.4	0	0	---	0.00	30.039 
06:00	50.7	50.7	50.7	89	47.6	0	0	---	0.00	30.042 
06:05	50.7	50.7	50.7	89	47.6	0	0	---	0.00	30.042 
06:10	50.7	50.7	50.7	89	47.6	0	0	---	0.00	30.042 
06:15	50.5	50.5	50.5	89	47.4	0	0	---	0.00	30.046 
06:20	50.5	50.5	50.5	89	47.4	0	0	---	0.00	30.046 
06:25	50.5	50.5	50.5	90	47.7	0	0	---	0.00	30.046 
06:30	50.4	50.4	50.4	90	47.6	0	0	---	0.00	30.050 
06:35	50.5	50.5	50.5	90	47.7	0	0	---	0.00	30.050 
06:40	50.4	50.4	50.4	90	47.6	0	0	---	0.00	30.050 
06:45	50.4	50.4	50.4	90	47.6	0	0	---	0.00	30.059 
06:50	50.5	50.5	50.5	90	47.7	0	0	---	0.00	30.059 
06:55	50.7	50.7	50.7	90	47.9	0	0	---	0.00	30.059 
07:00	50.8	50.8	50.8	90	48.0	0	0	---	0.00	30.063 
07:05	51.0	51.0	51.0	90	48.2	0	0	---	0.00	30.063 
07:10	51.3	51.3	51.3	91	48.8	0	0	---	0.00	30.063 
07:15	51.7	51.7	51.7	91	49.2	0	0	---	0.00	30.065 
07:20	52.5	52.5	52.5	92	50.2	0	2	0	0.00	30.065 
07:25	53.6	53.6	53.6	89	50.4	0	1	0	0.00	30.065 
07:30	54.8	54.8	54.8	86	50.7	0	1	0	0.00	30.065 
07:35	56.0	56.0	56.0	83	50.9	0	2	0	0.00	30.065 
07:40	57.2	57.2	57.2	80	51.1	0	3	0	0.00	30.065 
07:45	58.3	58.3	58.3	77	51.1	0	2	0	0.00	30.070 
07:50	59.2	59.2	59.2	75	51.3	0	2	0	0.00	30.070 
07:55	59.9	59.9	59.9	74	51.6	0	2	0	0.00	30.070 
08:00	60.7	60.7	60.7	73	52.0	0	2	0	0.00	30.067 
08:05	61.5	61.5	61.5	70	51.6	0	1	0	0.00	30.067 
08:10	62.4	62.4	62.4	69	52.1	0	3	0	0.00	30.067 
08:15	63.2	63.2	63.2	67	52.1	0	1	0	0.00	30.070 
08:20	64.0	64.0	64.0	65	52.0	0	2	0	0.00	30.070 
08:25	64.3	64.3	64.3	64	51.9	0	2	112	0.00	30.070 
08:30	65.0	65.0	65.0	63	52.1	0	2	112	0.00	30.065 
08:35	65.5	65.5	65.5	62	52.1	0	2	135	0.00	30.065 
08:40	66.1	66.1	66.1	60	51.8	1	3	135	0.00	30.065 
08:45	66.4	66.4	66.4	59	51.6	0	2	135	0.00	30.071 
08:50	66.8	66.8	66.8	60	52.5	0	2	135	0.00	30.071 
08:55	67.1	67.1	67.1	59	52.3	0	3	135	0.00	30.071 
09:00	67.8	67.8	67.8	58	52.5	0	2	135	0.00	30.068 
09:05	68.3	68.3	68.3	58	52.9	0	3	158	0.00	30.068 
09:10	68.6	68.6	68.6	56	52.3	1	3	90	0.00	30.068 
09:15	68.9	68.9	68.9	56	52.5	0	2	90	0.00	30.071 
09:20	69.6	69.6	69.6	56	53.2	0	2	90	0.00	30.071 
09:25	70.3	70.3	70.3	54	52.9	0	1	90	0.00	30.071 
09:30	70.9	70.9	70.9	53	52.9	0	1	90	0.00	30.065 
09:35	71.6	71.6	71.6	52	53.0	0	2	90	0.00	30.065 
09:40	72.1	72.1	72.1	52	53.5	0	2	90	0.00	30.065 
09:45	72.7	72.7	72.7	52	54.0	0	2	90	0.00	30.059 
09:50	73.3	73.3	73.3	50	53.5	0	2	90	0.00	30.059 
09:55	73.5	73.5	73.5	48	52.6	0	3	90	0.00	30.059 
10:00	73.9	73.9	73.9	47	52.4	1	5	90	0.00	30.056 
10:05	73.7	73.7	73.7	47	52.2	1	4	45	0.00	30.056 
10:10	74.0	74.0	74.0	48	53.0	0	2	68	0.00	30.056 
10:15	74.6	74.6	74.6	47	53.0	0	2	68	0.00	30.052 
10:20	75.1	75.1	77.7	46	52.9	0	3	68	0.00	30.052 
10:25	75.3	75.3	77.7	44	51.9	1	5	68	0.00	30.052 
10:30	75.3	75.3	77.7	43	51.2	1	4	90	0.00	30.053 
10:35	75.1	75.1	77.7	48	54.1	0	3	90	0.00	30.053 
10:40	75.3	75.3	77.7	45	52.5	1	4	90	0.00	30.053 
10:45	75.6	75.6	77.8	44	52.1	1	4	45	0.00	30.054 
10:50	76.0	76.0	78.0	45	53.1	1	3	68	0.00	30.054 
10:55	76.0	76.0	78.0	45	53.1	1	5	90	0.00	30.054 
11:00	76.0	76.0	78.0	46	53.7	1	3	135	0.00	30.051 
11:05	76.3	76.3	78.1	44	52.8	1	4	135	0.00	30.051 
11:10	76.3	76.3	78.2	48	55.1	1	3	135	0.00	30.051 
11:15	76.3	76.3	78.1	46	54.0	1	7	90	0.00	30.048 
11:20	76.3	76.3	78.1	46	54.0	1	3	90	0.00	30.048 
11:25	76.7	76.7	78.4	47	54.9	1	3	90	0.00	30.048 
11:30	76.8	76.8	78.3	45	53.8	1	4	68	0.00	30.043 
11:35	77.0	77.0	78.4	45	54.0	1	5	90	0.00	30.043 
11:40	76.8	76.8	78.4	47	55.0	1	4	90	0.00	30.043 
11:45	77.0	77.0	78.5	46	54.6	1	3	90	0.00	30.049 
11:50	77.4	77.4	78.7	47	55.6	0	3	90	0.00	30.049 
11:55	77.7	77.7	78.8	45	54.6	1	3	90	0.00	30.049 
12:00	78.1	78.1	78.9	43	53.8	1	7	135	0.00	30.040 
12:05	78.3	78.3	79.2	45	55.2	1	3	135	0.00	30.040 
12:10	78.5	78.5	79.4	46	56.0	0	2	202	0.00	30.040 
12:15	79.0	79.0	79.6	45	55.8	0	2	90	0.00	30.044 
12:20	79.4	79.4	80.1	47	57.4	0	2	68	0.00	30.044 
12:25	79.8	79.8	80.1	44	55.9	0	2	68	0.00	30.044 
12:30	79.6	79.6	80.0	45	56.4	1	3	68	0.00	30.034 
12:35	79.8	79.8	80.0	43	55.3	0	2	68	0.00	30.034 
12:40	79.8	79.8	80.0	43	55.3	1	3	68	0.00	30.034 
12:45	79.9	79.9	80.1	43	55.4	1	4	68	0.00	30.033 
12:50	80.1	80.1	80.4	45	56.8	0	1	68	0.00	30.033 
12:55	80.5	80.5	80.6	44	56.6	0	3	68	0.00	30.033 
13:00	80.9	80.9	81.0	44	56.9	0	2	68	0.00	30.023 
13:05	81.1	81.1	80.9	42	55.8	1	3	68	0.00	30.023 
13:10	80.9	80.9	80.8	42	55.6	1	9	112	0.00	30.023 
13:15	80.9	80.9	81.0	44	56.9	1	3	112	0.00	30.018 
13:20	81.1	81.1	81.1	44	57.1	1	4	112	0.00	30.018 
13:25	81.2	81.2	81.5	46	58.4	0	2	112	0.00	30.018 
13:30	81.4	81.4	81.0	40	54.7	2	5	90	0.00	30.011 
13:35	81.2	81.2	81.3	45	57.8	1	5	68	0.00	30.011 
13:40	81.4	81.4	81.3	43	56.7	1	4	270	0.00	30.011 
13:45	81.4	81.4	81.1	41	55.4	1	5	90	0.00	30.008 
13:50	81.6	81.6	81.5	43	56.9	1	4	90	0.00	30.008 
13:55	81.8	81.8	81.6	43	57.1	1	5	90	0.00	30.008 
14:00	82.0	82.0	81.9	44	57.9	1	4	90	0.00	30.004 
14:05	82.0	82.0	81.8	43	57.3	2	6	90	0.00	30.004 
14:10	82.2	82.2	82.0	43	57.4	1	4	90	0.00	30.004 
14:15	82.2	82.2	81.9	42	56.8	2	6	90	0.00	29.998 
14:20	82.4	82.4	82.5	45	58.9	1	4	158	0.00	29.998 
14:25	82.6	82.6	82.2	42	57.2	1	4	112	0.00	29.998 
14:30	82.4	82.4	82.2	43	57.6	1	3	292	0.00	29.991 
14:35	82.6	82.6	82.7	45	59.1	0	4	90	0.00	29.991 
14:40	82.4	82.4	81.9	41	56.3	2	7	90	0.00	29.991 
14:45	82.2	82.2	82.0	43	57.4	1	5	90	0.00	29.986 
14:50	82.4	82.4	82.5	45	58.9	1	4	90	0.00	29.986 
14:55	82.8	82.8	82.7	44	58.6	1	6	338	0.00	29.986 
15:00	82.6	82.6	82.4	43	57.8	2	5	292	0.00	29.975 
15:05	82.6	82.6	82.5	44	58.4	2	7	112	0.00	29.975 
15:10	82.6	82.6	82.4	43	57.8	1	6	68	0.00	29.975 
15:15	82.6	82.6	82.4	43	57.8	1	7	90	0.00	29.974 
15:20	82.6	82.6	82.5	44	58.4	2	6	90	0.00	29.974 
15:25	83.0	83.0	83.1	45	59.4	1	4	90	0.00	29.974 
15:30	83.0	83.0	82.8	43	58.2	1	4	270	0.00	29.971 
15:35	82.8	82.8	82.9	45	59.3	1	7	112	0.00	29.971 
15:40	82.8	82.8	82.7	44	58.6	2	6	112	0.00	29.971 
15:45	82.6	82.6	82.7	45	59.1	2	6	45	0.00	29.958 
15:50	82.6	82.6	82.7	45	59.1	1	6	45	0.00	29.958 
15:55	82.8	82.8	83.0	46	59.9	1	5	90	0.00	29.958 
16:00	83.0	83.0	82.8	43	58.2	3	10	90	0.00	29.942 
16:05	83.0	83.0	82.8	43	58.2	3	9	90	0.00	29.942 
16:10	83.2	83.2	83.0	43	58.3	2	6	90	0.00	29.942 
16:15	83.4	83.4	83.3	44	59.2	2	6	68	0.00	29.935 
16:20	83.6	83.6	83.9	46	60.6	1	4	45	0.00	29.935 
16:25	83.8	83.8	83.7	44	59.5	3	9	90	0.00	29.935 
16:30	83.8	83.8	83.7	44	59.5	2	7	90	0.00	29.940 
16:35	83.6	83.6	83.4	43	58.7	2	5	112	0.00	29.940 
16:40	83.6	83.6	83.4	43	58.7	3	8	90	0.00	29.940 
16:45	84.0	84.0	84.3	46	61.0	1	5	315	0.00	29.931 
16:50	84.1	84.1	84.3	45	60.4	1	4	90	0.00	29.931 
16:55	84.5	84.5	84.3	43	59.5	1	4	90	0.00	29.931 
17:00	84.1	84.1	83.9	43	59.2	1	4	270	0.00	29.929 
17:05	84.0	84.0	83.8	43	59.1	2	7	112	0.00	29.929 
17:10	84.0	84.0	84.1	45	60.3	2	6	90	0.00	29.929 
17:15	84.3	84.3	84.3	44	60.0	2	7	112	0.00	29.918 
17:20	84.1	84.1	83.6	41	57.8	3	9	90	0.00	29.918 
17:25	84.3	84.3	84.3	44	60.0	2	5	68	0.00	29.918 
17:30	84.5	84.5	84.5	44	60.2	1	3	90	0.00	29.913 
17:35	84.5	84.5	84.3	43	59.5	2	7	45	0.00	29.913 
17:40	84.5	84.5	84.3	43	59.5	2	4	90	0.00	29.913 
17:45	84.7	84.7	85.2	46	61.6	1	5	112	0.00	29.909 
17:50	84.5	84.5	84.1	42	58.9	2	5	112	0.00	29.909 
17:55	84.3	84.3	84.1	43	59.3	1	5	112	0.00	29.909 
18:00	84.0	84.0	83.4	41	57.7	1	4	68	0.00	29.927 
18:05	83.8	83.8	82.8	38	55.5	1	3	270	0.00	29.927 
18:10	83.6	83.6	82.6	38	55.3	1	5	292	0.00	29.927 
18:15	83.4	83.4	82.6	39	55.8	1	3	45	0.00	29.932 
18:20	83.6	83.6	82.8	39	56.0	1	4	270	0.00	29.932 
18:25	83.6	83.6	83.0	41	57.4	0	4	45	0.00	29.932 
18:30	83.6	83.6	82.8	39	56.0	1	4	315	0.00	29.931 
18:35	83.6	83.6	82.8	39	56.0	1	4	292	0.00	29.931 
18:40	83.8	83.8	82.9	39	56.2	1	5	270	0.00	29.931 
18:45	83.6	83.6	82.9	40	56.7	0	2	270	0.00	29.934 
18:50	83.2	83.2	82.5	40	56.3	1	4	270	0.00	29.934 
18:55	82.8	82.8	82.3	41	56.7	0	2	270	0.00	29.934 
19:00	82.4	82.4	81.9	41	56.3	1	4	90	0.00	29.933 
19:05	82.0	82.0	81.7	42	56.6	0	2	90	0.00	29.933 
19:10	81.8	81.8	81.6	43	57.1	0	2	68	0.00	29.933 
19:15	81.4	81.4	81.3	43	56.7	0	2	68	0.00	29.924 
19:20	81.2	81.2	81.1	43	56.5	0	2	68	0.00	29.924 
19:25	81.1	81.1	81.1	44	57.1	0	1	68	0.00	29.924 
19:30	81.1	81.1	81.1	44	57.1	0	1	68	0.00	29.932 
19:35	80.9	80.9	81.1	45	57.5	0	1	68	0.00	29.932 
19:40	80.9	80.9	81.1	45	57.5	0	1	68	0.00	29.932 
19:45	80.7	80.7	81.1	47	58.6	0	0	---	0.00	29.933 
19:50	80.7	80.7	81.1	47	58.6	0	1	68	0.00	29.933 
19:55	80.5	80.5	80.9	47	58.4	0	1	68	0.00	29.933 
20:00	80.5	80.5	80.9	47	58.4	0	2	68	0.00	29.929 
20:05	80.5	80.5	81.0	48	59.0	0	0	---	0.00	29.929 
20:10	80.5	80.5	81.0	48	59.0	0	1	68	0.00	29.929 
20:15	80.5	80.5	81.0	48	59.0	0	1	68	0.00	29.932 
20:20	80.5	80.5	81.2	49	59.6	0	1	68	0.00	29.932 
20:25	80.5	80.5	81.2	49	59.6	0	1	68	0.00	29.932 
20:30	80.3	80.3	81.1	50	59.9	0	1	68	0.00	29.932 
20:35	80.1	80.1	80.8	49	59.2	0	0	---	0.00	29.932 
20:40	80.1	80.1	80.9	50	59.8	0	0	---	0.00	29.932 
20:45	79.9	79.9	80.7	50	59.6	0	1	68	0.00	29.932 
20:50	79.9	79.9	80.7	50	59.6	0	1	68	0.00	29.932 
20:55	79.9	79.9	80.7	50	59.6	0	1	68	0.00	29.932 
21:00	79.8	79.8	80.7	51	60.0	0	1	68	0.00	29.927 
21:05	79.6	79.6	80.5	51	59.9	0	1	68	0.00	29.927 
21:10	79.4	79.4	80.5	52	60.2	0	2	68	0.00	29.927 
21:15	79.2	79.2	80.4	53	60.6	0	1	68	0.00	29.926 
21:20	79.0	79.0	80.2	53	60.4	0	0	---	0.00	29.926 
21:25	78.8	78.8	80.0	53	60.2	0	1	68	0.00	29.926 
21:30	78.6	78.6	79.9	54	60.5	0	1	68	0.00	29.928 
21:35	78.5	78.5	79.8	54	60.4	0	0	---	0.00	29.928 
21:40	78.3	78.3	79.7	55	60.8	0	0	---	0.00	29.928 
21:45	78.1	78.1	79.5	55	60.6	0	1	68	0.00	29.930 
21:50	78.1	78.1	79.5	55	60.6	0	0	---	0.00	29.930 
21:55	77.9	77.9	79.4	55	60.4	0	1	68	0.00	29.930 
22:00	77.9	77.9	79.4	56	60.9	0	0	---	0.00	29.935 
22:05	77.7	77.7	79.3	56	60.7	0	1	68	0.00	29.935 
22:10	77.6	77.6	79.2	56	60.6	0	1	68	0.00	29.935 
22:15	77.4	77.4	79.0	56	60.5	0	2	68	0.00	29.939 
22:20	77.4	77.4	79.1	57	61.0	0	1	68	0.00	29.939 
22:25	77.4	77.4	79.1	57	61.0	0	0	---	0.00	29.939 
22:30	77.2	77.2	78.9	57	60.8	0	1	68	0.00	29.944 
22:35	77.2	77.2	78.9	57	60.8	0	1	68	0.00	29.944 
22:40	77.2	77.2	78.9	57	60.8	0	0	---	0.00	29.944 
22:45	77.0	77.0	78.7	57	60.6	0	1	68	0.00	29.945 
22:50	76.8	76.8	78.6	58	60.9	0	0	---	0.00	29.945 
22:55	76.7	76.7	78.5	58	60.8	0	1	68	0.00	29.945 
23:00	76.7	76.7	78.5	58	60.8	0	1	68	0.00	29.944 
23:05	76.5	76.5	78.4	58	60.6	0	1	68	0.00	29.944 
23:10	76.3	76.3	78.2	59	60.9	0	1	68	0.00	29.944 
23:15	76.3	76.3	78.2	59	60.9	0	0	---	0.00	29.946 
23:20	76.1	76.1	78.1	60	61.2	0	0	---	0.00	29.946 
23:25	76.0	76.0	78.0	60	61.1	0	0	---	0.00	29.946 
23:30	75.8	75.8	77.9	60	60.9	0	1	68	0.00	29.952 
23:35	75.8	75.8	77.8	61	61.4	0	1	68	0.00	29.952 
23:40	75.8	75.8	77.8	61	61.4	0	0	---	0.00	29.952 
23:45	75.8	75.8	77.8	62	61.8	0	1	68	0.00	29.952 
23:50	75.6	75.6	77.7	61	61.2	0	2	68	0.00	29.952 
23:55	75.6	75.6	77.7	62	61.6	0	1	68	0.00	29.952 

CoCoRaHS
IN-AL-39
A2 Web Hosting
Creative Commons License
GoDaddy
search engine by freefind advanced

loaded 2018-11-13 17:06:56 • last modified 2010-11-18 10:43:29
Privacy PolicyDisclaimer
• wx.awcolley.com is powered by PmWiki v.2002016 •
• all content (unless otherwise noted) © 2018 A W Colley